This is the latest recevied weather packets stored in our database for station/object W5CMS-13. If no packets are shown the sender has not sent any weather packets the latest 10 day(s).
| Time | Temp. | Humidity | Pressure | Rain* | Wind** | Luminosity | Snow |
|---|---|---|---|---|---|---|---|
| 1777347018 | 21.11° C | 98% | 1009.9 hPa | 0 mm | - | - | - |
| 1777346416 | 21.11° C | 98% | 1009.8 hPa | 0 mm | - | - | - |
| 1777345817 | 21.11° C | 97% | 1009.8 hPa | 0 mm | - | - | - |
| 1777345216 | 21.67° C | 98% | 1009.6 hPa | 0 mm | - | - | - |
| 1777344616 | 21.67° C | 98% | 1009.3 hPa | 0 mm | - | - | - |
| 1777344016 | 21.67° C | 98% | 1009.2 hPa | 0 mm | - | - | - |
| 1777343416 | 22.22° C | 97% | 1009 hPa | 0 mm | - | - | - |
| 1777342817 | 22.78° C | 97% | 1008.9 hPa | 0 mm | - | - | - |
| 1777342217 | 23.33° C | 98% | 1009 hPa | 6.86 mm | - | - | - |
| 1777341617 | 22.78° C | 98% | 1008.6 hPa | 10.16 mm | - | - | - |
| 1777341017 | 22.78° C | 98% | 1008.4 hPa | 10.16 mm | - | - | - |
| 1777340417 | 22.78° C | 97% | 1008.3 hPa | 10.16 mm | - | - | - |
| 1777339817 | 22.22° C | 96% | 1008.2 hPa | 10.16 mm | - | - | - |
| 1777339216 | 22.22° C | 92% | 1007.9 hPa | 10.16 mm | - | - | - |
| 1777338616 | 26.11° C | 89% | 1008.2 hPa | 3.3 mm | - | - | - |
| 1777338016 | 26.67° C | 86% | 1007.2 hPa | 0 mm | - | - | - |
| 1777337416 | 26.67° C | 83% | 1007 hPa | 0 mm | - | - | - |
| 1777336816 | 27.78° C | 77% | 1007.1 hPa | 0 mm | - | - | - |
| 1777336218 | 30.56° C | 71% | 1007 hPa | 0 mm | - | - | - |
| 1777335617 | 30.56° C | 70% | 1006.8 hPa | 0 mm | - | - | - |
| 1777335016 | 31.11° C | 70% | 1006.4 hPa | 0 mm | - | - | - |
| 1777334416 | 31.11° C | 68% | 1006.5 hPa | 0 mm | - | - | - |
| 1777333816 | 31.67° C | 66% | 1006.6 hPa | 0 mm | - | - | - |
| 1777333217 | 31.67° C | 64% | 1006.7 hPa | 0 mm | - | - | - |
| 1777332616 | 31.67° C | 64% | 1006.7 hPa | 0 mm | - | - | - |
* Rain latest hour (hover to see other rain measurements)
** Current wind speed in m/s (hover to see current wind gust speed)